createdAt,value
2023-07-06T00:02:02.915Z,97052.38
2023-07-06T00:04:34.858Z,97048.78
2023-07-06T00:07:06.743Z,97050.13
2023-07-06T00:09:39.023Z,97057.00
2023-07-06T00:12:11.049Z,97059.69
2023-07-06T00:14:42.770Z,97054.66
2023-07-06T00:17:15.977Z,97054.31
2023-07-06T00:19:47.533Z,97054.75
2023-07-06T00:22:19.076Z,97044.53
2023-07-06T00:24:50.609Z,97040.69
2023-07-06T00:27:22.216Z,97041.03
2023-07-06T00:29:53.829Z,97047.09
2023-07-06T00:32:26.197Z,97045.59
2023-07-06T00:34:58.372Z,97037.38
2023-07-06T00:37:30.128Z,97032.53
2023-07-06T00:40:01.796Z,97030.94
2023-07-06T00:42:37.534Z,97041.41
2023-07-06T00:45:11.669Z,97034.69
2023-07-06T00:47:50.123Z,97027.22
2023-07-06T00:50:27.218Z,97040.41
2023-07-06T00:53:05.498Z,97040.75
2023-07-06T00:55:40.301Z,97043.75
2023-07-06T00:58:18.680Z,97048.25
2023-07-06T01:00:54.108Z,97043.22
2023-07-06T01:03:26.394Z,97039.88
2023-07-06T01:06:03.550Z,97044.38
2023-07-06T01:08:35.350Z,97040.19
2023-07-06T01:11:09.323Z,97036.34
2023-07-06T01:13:53.033Z,97043.13
2023-07-06T01:16:53.652Z,97036.47
2023-07-06T01:19:44.452Z,97031.56
2023-07-06T01:22:22.290Z,97024.69
2023-07-06T01:25:00.259Z,97023.69
2023-07-06T01:28:13.224Z,97017.03
2023-07-06T01:31:03.160Z,97006.75
2023-07-06T01:33:59.458Z,97008.53
2023-07-06T01:37:02.236Z,97008.13
2023-07-06T01:39:34.134Z,97007.69
2023-07-06T01:42:08.897Z,97012.06
2023-07-06T01:44:44.321Z,97000.53
2023-07-06T01:47:19.732Z,97003.09
2023-07-06T01:49:53.686Z,96998.22
2023-07-06T01:52:25.414Z,97003.25
2023-07-06T01:55:09.504Z,96996.69
2023-07-06T01:58:05.699Z,97005.25
2023-07-06T02:00:46.466Z,96998.81
2023-07-06T02:03:19.593Z,97003.16
2023-07-06T02:05:52.540Z,97000.56
2023-07-06T02:08:25.072Z,96998.66
2023-07-06T02:10:56.826Z,97005.22
2023-07-06T02:13:29.160Z,96994.13
2023-07-06T02:16:01.805Z,96989.22
2023-07-06T02:18:33.889Z,96993.81
2023-07-06T02:21:05.555Z,96995.94
2023-07-06T02:23:37.170Z,96988.16
2023-07-06T02:26:08.786Z,96992.88
2023-07-06T02:28:40.367Z,96977.94
2023-07-06T02:31:11.992Z,96984.03
2023-07-06T02:33:43.639Z,96983.69
2023-07-06T02:36:15.404Z,96979.78
2023-07-06T02:38:46.979Z,96985.41
2023-07-06T02:41:18.585Z,96976.81
2023-07-06T02:43:50.506Z,96977.03
2023-07-06T02:46:22.279Z,96978.84
2023-07-06T02:48:54.089Z,96975.25
2023-07-06T02:51:25.904Z,96977.31
2023-07-06T02:53:57.504Z,96971.56
2023-07-06T02:56:29.262Z,96970.19
2023-07-06T02:59:00.977Z,96981.81
2023-07-06T03:01:32.708Z,96972.34
2023-07-06T03:04:05.212Z,96987.19
2023-07-06T03:06:38.773Z,96986.59
2023-07-06T03:09:10.681Z,96983.91
2023-07-06T03:11:42.419Z,96986.75
2023-07-06T03:14:14.494Z,96980.06
2023-07-06T03:16:46.181Z,96989.31
2023-07-06T03:19:18.145Z,96989.19
2023-07-06T03:21:49.910Z,96987.94
2023-07-06T03:24:22.297Z,96983.53
2023-07-06T03:26:54.619Z,96978.59
2023-07-06T03:29:26.409Z,96988.59
2023-07-06T03:31:59.123Z,96987.47
2023-07-06T03:34:31.313Z,96988.69
2023-07-06T03:37:02.985Z,96983.25
2023-07-06T03:39:35.700Z,96988.63
2023-07-06T03:42:07.976Z,96978.97
2023-07-06T03:44:39.892Z,96985.03
2023-07-06T03:47:12.020Z,96982.94
2023-07-06T03:49:43.760Z,96977.53
2023-07-06T03:52:15.293Z,96980.25
2023-07-06T03:54:46.865Z,96971.69
2023-07-06T03:57:18.417Z,96970.66
2023-07-06T03:59:50.021Z,96975.81
2023-07-06T04:02:21.637Z,96976.09
2023-07-06T04:04:53.231Z,96972.41
2023-07-06T04:07:24.814Z,96978.47
2023-07-06T04:09:56.402Z,96981.81
2023-07-06T04:12:27.986Z,96982.47
2023-07-06T04:14:59.804Z,96984.84
2023-07-06T04:17:32.752Z,96987.88
2023-07-06T04:20:06.137Z,96982.91
2023-07-06T04:22:37.683Z,96981.34
2023-07-06T04:25:09.434Z,96989.44
2023-07-06T04:27:40.953Z,96983.06
2023-07-06T04:30:14.154Z,96988.84
2023-07-06T04:32:50.458Z,96982.72
2023-07-06T04:35:23.081Z,96985.63
2023-07-06T04:37:55.620Z,96990.34
2023-07-06T04:40:27.793Z,96993.13
2023-07-06T04:42:59.522Z,96996.31
2023-07-06T04:45:31.211Z,97001.34
2023-07-06T04:48:02.880Z,96996.28
2023-07-06T04:50:34.615Z,96986.38
2023-07-06T04:53:06.425Z,96987.13
2023-07-06T04:55:38.384Z,96987.53
2023-07-06T04:58:10.356Z,96995.50
2023-07-06T05:00:42.150Z,96997.97
2023-07-06T05:03:14.778Z,96999.06
2023-07-06T05:05:47.924Z,97008.63
2023-07-06T05:08:20.148Z,97003.88
2023-07-06T05:10:53.201Z,97012.38
2023-07-06T05:13:26.078Z,97018.09
2023-07-06T05:15:58.802Z,97016.06
2023-07-06T05:18:30.807Z,97021.94
2023-07-06T05:21:02.448Z,97012.03
2023-07-06T05:23:34.497Z,97008.25
2023-07-06T05:26:06.770Z,97014.28
2023-07-06T05:28:38.707Z,97018.41
2023-07-06T05:31:10.442Z,97014.72
2023-07-06T05:33:42.240Z,97012.03
2023-07-06T05:36:13.946Z,97014.50
2023-07-06T05:38:45.837Z,97004.94
2023-07-06T05:41:17.469Z,97009.50
2023-07-06T05:43:49.010Z,97013.69
2023-07-06T05:46:20.608Z,97003.38
2023-07-06T05:48:54.443Z,97012.25
2023-07-06T05:51:25.999Z,97015.72
2023-07-06T05:53:57.571Z,97014.13
2023-07-06T05:56:30.676Z,97019.88
2023-07-06T05:59:02.225Z,97017.31
2023-07-06T06:01:33.965Z,97028.09
2023-07-06T06:04:05.551Z,97025.59
2023-07-06T06:06:52.353Z,97026.34
2023-07-06T06:09:26.041Z,97033.97
2023-07-06T06:12:01.305Z,97032.28
2023-07-06T06:14:33.935Z,97024.38
2023-07-06T06:17:05.856Z,97028.06
2023-07-06T06:19:38.734Z,97029.44
2023-07-06T06:22:10.637Z,97038.34
2023-07-06T06:24:42.870Z,97038.25
2023-07-06T06:27:18.159Z,97035.31
2023-07-06T06:29:49.836Z,97032.91
2023-07-06T06:32:21.567Z,97045.25
2023-07-06T06:34:53.578Z,97044.38
2023-07-06T06:37:25.125Z,97040.78
2023-07-06T06:39:56.694Z,97038.59
2023-07-06T06:42:28.369Z,97041.75
2023-07-06T06:45:00.865Z,97047.19
2023-07-06T06:47:32.636Z,97044.81
2023-07-06T06:50:04.731Z,97049.59
2023-07-06T06:52:37.033Z,97049.03
2023-07-06T06:55:09.330Z,97055.13
2023-07-06T06:57:41.055Z,97050.06
2023-07-06T07:00:14.846Z,97044.91
2023-07-06T07:02:46.872Z,97053.56
2023-07-06T07:05:18.872Z,97035.47
2023-07-06T07:07:52.031Z,97048.41
2023-07-06T07:10:25.381Z,97055.88
2023-07-06T07:13:00.289Z,97046.81
2023-07-06T07:15:33.148Z,97055.13
2023-07-06T07:18:04.930Z,97050.94
2023-07-06T07:20:36.850Z,97050.94
2023-07-06T07:23:09.927Z,97051.94
2023-07-06T07:25:42.141Z,97043.06
2023-07-06T07:28:15.925Z,97044.91
2023-07-06T07:30:58.004Z,97047.72
2023-07-06T07:33:29.908Z,97044.69
2023-07-06T07:36:03.409Z,97045.34
2023-07-06T07:38:35.038Z,97048.28
2023-07-06T07:41:08.824Z,97048.25
2023-07-06T07:43:40.949Z,97044.53
2023-07-06T07:46:12.967Z,97046.59
2023-07-06T07:48:47.205Z,97045.97
2023-07-06T07:51:23.007Z,97042.69
2023-07-06T07:53:56.206Z,97048.31
2023-07-06T07:56:28.780Z,97039.97
2023-07-06T07:59:00.511Z,97045.03
2023-07-06T08:01:32.220Z,97040.88
2023-07-06T08:04:04.176Z,97039.44
2023-07-06T08:06:35.946Z,97038.31
2023-07-06T08:09:07.544Z,97034.78
2023-07-06T08:11:39.837Z,97037.88
2023-07-06T08:14:12.003Z,97039.69
2023-07-06T08:16:43.649Z,97038.88
2023-07-06T08:19:41.640Z,97039.69
2023-07-06T08:22:10.021Z,97039.50
2023-07-06T08:24:42.288Z,97040.56
2023-07-06T08:27:16.108Z,97038.28
2023-07-06T08:29:48.819Z,97030.34
2023-07-06T08:32:20.710Z,97025.59
2023-07-06T08:34:52.599Z,97029.91
2023-07-06T08:37:24.230Z,97028.88
2023-07-06T08:39:56.062Z,97031.84
2023-07-06T08:42:28.669Z,97022.81
2023-07-06T08:45:00.301Z,97022.88
2023-07-06T08:47:32.311Z,97024.81
2023-07-06T08:50:04.374Z,97024.72
2023-07-06T08:52:36.075Z,97031.47
2023-07-06T08:55:14.399Z,97028.09
2023-07-06T08:57:47.392Z,97024.78
2023-07-06T09:00:23.576Z,97027.94
2023-07-06T09:03:07.004Z,97027.91
2023-07-06T09:05:46.011Z,97031.69
2023-07-06T09:08:19.631Z,97028.38
2023-07-06T09:10:51.666Z,97023.22
2023-07-06T09:13:26.995Z,97018.47
2023-07-06T09:16:02.426Z,97020.47
2023-07-06T09:18:34.534Z,97021.28
2023-07-06T09:21:06.294Z,97017.09
2023-07-06T09:23:38.073Z,97015.75
2023-07-06T09:26:32.877Z,97018.94
2023-07-06T09:29:14.373Z,97018.41
2023-07-06T09:31:48.252Z,97030.94
2023-07-06T09:34:30.226Z,97023.56
2023-07-06T09:37:03.868Z,97021.25
2023-07-06T09:39:35.427Z,97004.94
2023-07-06T09:42:11.329Z,97011.72
2023-07-06T09:44:43.132Z,97013.34
2023-07-06T09:47:16.084Z,97001.22
2023-07-06T09:49:57.297Z,97007.22
2023-07-06T09:52:29.488Z,97013.66
2023-07-06T09:55:06.684Z,97009.91
2023-07-06T09:57:38.697Z,97006.09
2023-07-06T10:00:17.634Z,97012.13
2023-07-06T10:02:58.312Z,97004.56
2023-07-06T10:05:42.156Z,97003.53
2023-07-06T10:08:34.704Z,97006.88
2023-07-06T10:11:18.804Z,97010.31
2023-07-06T10:14:11.474Z,97006.00
2023-07-06T10:17:14.829Z,97005.88
2023-07-06T10:20:11.200Z,97015.66
2023-07-06T10:23:20.644Z,97014.09
2023-07-06T10:26:14.425Z,97009.03
2023-07-06T10:29:00.699Z,97011.38
2023-07-06T10:31:42.834Z,97015.47
2023-07-06T10:34:24.896Z,97011.91
2023-07-06T10:36:56.956Z,97005.13
2023-07-06T10:39:28.455Z,97010.91
2023-07-06T10:42:03.094Z,97008.22
2023-07-06T10:44:40.621Z,97010.63
2023-07-06T10:47:33.651Z,97010.56
2023-07-06T10:50:08.763Z,97009.56
2023-07-06T10:52:53.424Z,97004.22
2023-07-06T10:55:30.431Z,97005.66
2023-07-06T10:58:23.827Z,97012.97
2023-07-06T11:01:08.277Z,97008.06
2023-07-06T11:03:44.585Z,97001.91
2023-07-06T11:06:35.431Z,97000.69
2023-07-06T11:09:07.167Z,97010.41
2023-07-06T11:12:03.658Z,97001.38
2023-07-06T11:14:40.093Z,97002.59
2023-07-06T11:17:21.276Z,97006.19
2023-07-06T11:20:16.392Z,97004.03
2023-07-06T11:22:54.995Z,97001.84
2023-07-06T11:25:28.476Z,96992.56
2023-07-06T11:28:05.804Z,96992.75
2023-07-06T11:30:57.957Z,96999.09
2023-07-06T11:33:43.945Z,96994.31
2023-07-06T11:36:40.052Z,97003.72
2023-07-06T11:39:48.848Z,96996.41
2023-07-06T11:42:57.950Z,96995.91
2023-07-06T11:45:29.530Z,96988.13
2023-07-06T11:48:07.414Z,96993.63
2023-07-06T11:50:40.765Z,96987.06
2023-07-06T11:53:15.657Z,96983.56
2023-07-06T11:55:48.037Z,96979.84
2023-07-06T11:58:23.421Z,96977.88
2023-07-06T12:00:58.261Z,96976.47
2023-07-06T12:03:30.217Z,96971.56
2023-07-06T12:06:02.751Z,96965.53
2023-07-06T12:08:37.459Z,96968.69
2023-07-06T12:11:17.378Z,96965.06
2023-07-06T12:13:55.821Z,96964.47
2023-07-06T12:16:39.597Z,96964.19
2023-07-06T12:19:13.908Z,96960.69
2023-07-06T12:21:53.553Z,96962.03
2023-07-06T12:24:27.808Z,96958.84
2023-07-06T12:27:03.717Z,96949.16
2023-07-06T12:29:35.533Z,96949.59
2023-07-06T12:32:17.525Z,96948.50
2023-07-06T12:34:54.397Z,96951.19
2023-07-06T12:37:26.382Z,96950.47
2023-07-06T12:39:58.543Z,96946.09
2023-07-06T12:42:30.483Z,96938.53
2023-07-06T12:45:03.749Z,96935.53
2023-07-06T12:47:38.864Z,96932.06
2023-07-06T12:50:18.592Z,96934.78
2023-07-06T12:52:50.715Z,96925.81
2023-07-06T12:55:24.136Z,96919.28
2023-07-06T12:57:56.328Z,96920.91
2023-07-06T13:00:30.304Z,96916.25
2023-07-06T13:03:05.155Z,96916.00
2023-07-06T13:05:38.470Z,96910.97
2023-07-06T13:08:14.977Z,96915.13
2023-07-06T13:10:59.056Z,96907.44
2023-07-06T13:13:38.879Z,96908.19
2023-07-06T13:16:19.231Z,96911.69
2023-07-06T13:18:51.141Z,96908.59
2023-07-06T13:21:27.515Z,96914.44
2023-07-06T13:23:59.183Z,96911.31
2023-07-06T13:26:31.223Z,96906.91
2023-07-06T13:29:02.794Z,96907.69
2023-07-06T13:31:52.001Z,96911.22
2023-07-06T13:34:25.626Z,96900.63
2023-07-06T13:36:57.139Z,96902.31
2023-07-06T13:39:28.699Z,96903.84
2023-07-06T13:42:00.293Z,96894.41
2023-07-06T13:44:31.858Z,96897.63
2023-07-06T13:47:05.719Z,96896.88
2023-07-06T13:49:37.455Z,96897.25
2023-07-06T13:52:09.143Z,96891.66
2023-07-06T13:54:40.750Z,96894.47
2023-07-06T13:57:12.443Z,96895.22
2023-07-06T13:59:44.112Z,96894.47
2023-07-06T14:02:15.993Z,96898.41
2023-07-06T14:04:47.660Z,96893.31
2023-07-06T14:07:19.364Z,96890.16
2023-07-06T14:09:51.106Z,96882.38
2023-07-06T14:12:22.941Z,96889.00
2023-07-06T14:14:54.961Z,96878.44
2023-07-06T14:17:27.392Z,96883.53
2023-07-06T14:20:03.312Z,96880.03
2023-07-06T14:22:35.679Z,96884.72
2023-07-06T14:25:23.819Z,96876.09
2023-07-06T14:27:57.105Z,96880.78
2023-07-06T14:30:28.909Z,96875.31
2023-07-06T14:33:04.927Z,96874.94
2023-07-06T14:35:37.438Z,96880.38
2023-07-06T14:38:10.171Z,96879.22
2023-07-06T14:40:42.645Z,96867.47
2023-07-06T14:43:14.278Z,96870.59
2023-07-06T14:45:46.084Z,96877.56
2023-07-06T14:48:17.927Z,96869.81
2023-07-06T14:50:49.854Z,96876.47
2023-07-06T14:53:21.664Z,96861.25
2023-07-06T14:55:54.125Z,96860.44
2023-07-06T14:58:27.629Z,96861.59
2023-07-06T15:00:59.572Z,96865.13
2023-07-06T15:03:31.471Z,96854.16
2023-07-06T15:06:05.400Z,96854.53
2023-07-06T15:08:37.031Z,96856.09
2023-07-06T15:11:08.598Z,96860.03
2023-07-06T15:13:40.405Z,96855.31
2023-07-06T15:16:12.064Z,96847.38
2023-07-06T15:18:43.626Z,96847.88
2023-07-06T15:21:19.041Z,96844.00
2023-07-06T15:23:50.773Z,96852.63
2023-07-06T15:26:22.357Z,96851.06
2023-07-06T15:28:54.044Z,96843.22
2023-07-06T15:31:25.685Z,96849.88
2023-07-06T15:33:57.287Z,96842.06
2023-07-06T15:36:29.539Z,96832.69
2023-07-06T15:39:01.247Z,96829.94
2023-07-06T15:41:34.190Z,96834.22
2023-07-06T15:44:07.073Z,96836.16
2023-07-06T15:46:38.644Z,96827.56
2023-07-06T15:49:10.949Z,96821.28
2023-07-06T15:51:42.625Z,96829.91
2023-07-06T15:54:14.407Z,96831.88
2023-07-06T15:56:46.200Z,96822.09
2023-07-06T15:59:18.063Z,96831.84
2023-07-06T16:01:49.955Z,96826.69
2023-07-06T16:04:21.793Z,96818.94
2023-07-06T16:06:53.761Z,96818.47
2023-07-06T16:09:25.689Z,96814.50
2023-07-06T16:11:57.479Z,96810.25
2023-07-06T16:14:29.451Z,96810.34
2023-07-06T16:17:01.214Z,96816.56
2023-07-06T16:19:32.934Z,96820.16
2023-07-06T16:22:04.901Z,96817.81
2023-07-06T16:24:36.695Z,96814.66
2023-07-06T16:27:08.591Z,96822.09
2023-07-06T16:29:41.663Z,96818.16
2023-07-06T16:32:14.274Z,96819.66
2023-07-06T16:34:46.105Z,96820.44
2023-07-06T16:37:18.411Z,96810.25
2023-07-06T16:39:51.474Z,96807.22
2023-07-06T16:42:23.264Z,96806.56
2023-07-06T16:44:58.680Z,96809.69
2023-07-06T16:47:31.088Z,96804.97
2023-07-06T16:50:03.223Z,96816.47
2023-07-06T16:52:55.400Z,96810.13
2023-07-06T16:55:27.428Z,96814.44
2023-07-06T16:58:11.508Z,96810.63
2023-07-06T17:00:45.209Z,96817.03
2023-07-06T17:03:19.609Z,96817.09
2023-07-06T17:05:54.660Z,96827.34
2023-07-06T17:08:27.459Z,96831.78
2023-07-06T17:11:08.848Z,96832.25
2023-07-06T17:13:40.566Z,96835.38
2023-07-06T17:16:12.254Z,96839.66
2023-07-06T17:18:43.844Z,96847.53
2023-07-06T17:21:15.611Z,96838.16
2023-07-06T17:23:47.157Z,96831.50
2023-07-06T17:26:18.801Z,96841.28
2023-07-06T17:28:50.317Z,96836.97
2023-07-06T17:31:21.950Z,96839.81
2023-07-06T17:33:53.634Z,96842.03
2023-07-06T17:36:25.286Z,96842.47
2023-07-06T17:38:56.890Z,96848.28
2023-07-06T17:41:28.445Z,96843.63
2023-07-06T17:44:00.697Z,96841.56
2023-07-06T17:46:32.251Z,96845.78
2023-07-06T17:49:03.885Z,96848.66
2023-07-06T17:51:35.704Z,96859.38
2023-07-06T17:54:07.323Z,96854.06
2023-07-06T17:56:39.094Z,96842.25
2023-07-06T17:59:10.929Z,96853.56
2023-07-06T18:01:42.722Z,96850.72
2023-07-06T18:04:14.806Z,96852.94
2023-07-06T18:06:46.620Z,96853.56
2023-07-06T18:09:18.491Z,96846.03
2023-07-06T18:11:50.290Z,96853.72
2023-07-06T18:14:22.296Z,96862.38
2023-07-06T18:16:54.036Z,96861.22
2023-07-06T18:19:25.682Z,96858.00
2023-07-06T18:21:58.371Z,96862.31
2023-07-06T18:24:30.080Z,96863.66
2023-07-06T18:27:01.694Z,96864.06
2023-07-06T18:29:33.881Z,96867.00
2023-07-06T18:32:06.415Z,96875.59
2023-07-06T18:34:38.183Z,96873.88
2023-07-06T18:37:09.845Z,96873.44
2023-07-06T18:39:44.271Z,96872.25
2023-07-06T18:42:17.047Z,96871.13
2023-07-06T18:45:03.033Z,96870.44
2023-07-06T18:47:36.784Z,96870.69
2023-07-06T18:50:08.973Z,96864.78
2023-07-06T18:52:40.544Z,96861.31
2023-07-06T18:55:12.130Z,96868.31
2023-07-06T18:57:43.725Z,96873.50
2023-07-06T19:00:15.783Z,96864.69
2023-07-06T19:02:47.582Z,96874.75
2023-07-06T19:05:19.182Z,96874.38
2023-07-06T19:08:00.572Z,96870.00
2023-07-06T19:10:39.070Z,96872.75
2023-07-06T19:13:12.023Z,96866.56
2023-07-06T19:15:48.362Z,96876.81
2023-07-06T19:18:20.244Z,96876.09
2023-07-06T19:20:52.339Z,96879.00
2023-07-06T19:23:24.087Z,96873.00
2023-07-06T19:25:57.103Z,96881.06
2023-07-06T19:28:29.470Z,96884.66
2023-07-06T19:31:02.054Z,96887.94
2023-07-06T19:33:35.252Z,96893.06
2023-07-06T19:36:15.217Z,96895.38
2023-07-06T19:38:55.381Z,96904.34
2023-07-06T19:41:36.876Z,96903.47
2023-07-06T19:44:14.188Z,96905.00
2023-07-06T19:46:47.847Z,96911.81
2023-07-06T19:49:26.287Z,96919.69
2023-07-06T19:51:59.341Z,96923.97
2023-07-06T19:54:33.971Z,96922.22
2023-07-06T19:57:12.377Z,96926.50
2023-07-06T19:59:47.854Z,96933.88
2023-07-06T20:02:25.725Z,96939.16
2023-07-06T20:05:01.801Z,96942.47
2023-07-06T20:07:34.860Z,96942.81
2023-07-06T20:10:20.061Z,96954.56
2023-07-06T20:13:00.783Z,96959.56
2023-07-06T20:15:37.193Z,96953.41
2023-07-06T20:18:17.332Z,96957.88
2023-07-06T20:20:56.758Z,96954.28
2023-07-06T20:23:33.126Z,96954.25
2023-07-06T20:26:17.027Z,96961.78
2023-07-06T20:28:56.779Z,96969.50
2023-07-06T20:31:39.825Z,96969.00
2023-07-06T20:34:14.972Z,96970.25
2023-07-06T20:36:58.116Z,96969.16
2023-07-06T20:39:36.782Z,96972.47
2023-07-06T20:42:10.041Z,96979.88
2023-07-06T20:44:51.663Z,96974.75
2023-07-06T20:47:26.992Z,96978.28
2023-07-06T20:50:05.764Z,96981.25
2023-07-06T20:52:37.452Z,96978.72
2023-07-06T20:55:09.281Z,96975.50
2023-07-06T20:57:40.916Z,96975.72
2023-07-06T21:00:14.404Z,96976.53
2023-07-06T21:02:46.218Z,96971.97
2023-07-06T21:05:17.846Z,96976.72
2023-07-06T21:07:53.987Z,96973.75
2023-07-06T21:10:26.917Z,96976.53
2023-07-06T21:12:58.653Z,96974.56
2023-07-06T21:15:30.280Z,96976.13
2023-07-06T21:18:01.981Z,96979.03
2023-07-06T21:20:33.657Z,96982.97
2023-07-06T21:23:05.219Z,96981.16
2023-07-06T21:25:36.876Z,96975.09
2023-07-06T21:28:08.938Z,96983.19
2023-07-06T21:30:41.920Z,96972.97
2023-07-06T21:33:13.554Z,96980.41
2023-07-06T21:35:45.140Z,96979.72
2023-07-06T21:38:16.773Z,96979.38
2023-07-06T21:40:52.390Z,96979.66
2023-07-06T21:43:24.339Z,96982.44
2023-07-06T21:45:55.930Z,96984.31
2023-07-06T21:48:27.624Z,96979.69
2023-07-06T21:50:59.951Z,96981.19
2023-07-06T21:53:32.237Z,96988.78
2023-07-06T21:56:07.901Z,96980.34
2023-07-06T21:58:41.308Z,96977.69
2023-07-06T22:01:13.871Z,96984.09
2023-07-06T22:03:45.876Z,96989.31
2023-07-06T22:06:20.942Z,96987.94
2023-07-06T22:08:53.211Z,96993.25
2023-07-06T22:11:28.812Z,96993.75
2023-07-06T22:14:00.663Z,97001.78
2023-07-06T22:16:32.460Z,97004.72
2023-07-06T22:19:04.097Z,97005.09
2023-07-06T22:21:35.776Z,97016.56
2023-07-06T22:24:07.778Z,97007.19
2023-07-06T22:26:39.452Z,97011.56
2023-07-06T22:29:11.301Z,97016.91
2023-07-06T22:31:43.139Z,97013.59
2023-07-06T22:34:14.872Z,97012.72
2023-07-06T22:36:46.454Z,97021.63
2023-07-06T22:39:18.019Z,97021.16
2023-07-06T22:41:49.847Z,97024.91
2023-07-06T22:44:21.603Z,97027.91
2023-07-06T22:46:53.242Z,97027.44
2023-07-06T22:49:24.960Z,97034.94
2023-07-06T22:51:57.381Z,97031.19
2023-07-06T22:54:29.041Z,97032.13
2023-07-06T22:57:01.289Z,97033.25
2023-07-06T22:59:32.908Z,97024.69
2023-07-06T23:02:04.864Z,97023.06
2023-07-06T23:04:36.363Z,97022.09
2023-07-06T23:07:07.840Z,97028.66
2023-07-06T23:09:39.434Z,97032.00
2023-07-06T23:12:11.089Z,97029.66
2023-07-06T23:14:42.646Z,97029.84
2023-07-06T23:17:14.488Z,97024.91
2023-07-06T23:19:47.035Z,97023.41
2023-07-06T23:22:18.609Z,97024.16
2023-07-06T23:24:50.214Z,97028.53
2023-07-06T23:27:21.775Z,97030.72
2023-07-06T23:29:53.515Z,97031.94
2023-07-06T23:32:31.094Z,97036.47
2023-07-06T23:35:02.595Z,97030.41
2023-07-06T23:37:34.211Z,97030.16
2023-07-06T23:40:06.279Z,97033.28
2023-07-06T23:42:38.140Z,97030.91
2023-07-06T23:45:10.246Z,97034.84
2023-07-06T23:47:42.008Z,97029.88
2023-07-06T23:50:13.584Z,97024.22
2023-07-06T23:52:45.177Z,97016.09
2023-07-06T23:55:16.942Z,97029.06
2023-07-06T23:57:48.632Z,97033.34
